sensor_id;sensor_type;location;lat;lon;timestamp;temperature;humidity
1760;DHT22;877;46.266;20.062;2023-08-12T00:01:13;19.30;63.70
1760;DHT22;877;46.266;20.062;2023-08-12T00:03:39;19.00;64.10
1760;DHT22;877;46.266;20.062;2023-08-12T00:06:05;19.10;64.30
1760;DHT22;877;46.266;20.062;2023-08-12T00:08:31;19.00;64.40
1760;DHT22;877;46.266;20.062;2023-08-12T00:10:57;18.80;64.90
1760;DHT22;877;46.266;20.062;2023-08-12T00:13:23;18.80;64.50
1760;DHT22;877;46.266;20.062;2023-08-12T00:15:49;18.70;65.00
1760;DHT22;877;46.266;20.062;2023-08-12T00:18:15;19.00;64.70
1760;DHT22;877;46.266;20.062;2023-08-12T00:20:41;19.00;64.00
1760;DHT22;877;46.266;20.062;2023-08-12T00:23:08;18.90;64.00
1760;DHT22;877;46.266;20.062;2023-08-12T00:25:34;18.90;64.60
1760;DHT22;877;46.266;20.062;2023-08-12T00:28:00;18.90;64.10
1760;DHT22;877;46.266;20.062;2023-08-12T00:30:26;18.80;66.60
1760;DHT22;877;46.266;20.062;2023-08-12T00:32:53;19.10;66.50
1760;DHT22;877;46.266;20.062;2023-08-12T00:35:18;19.10;66.10
1760;DHT22;877;46.266;20.062;2023-08-12T00:37:45;19.10;65.50
1760;DHT22;877;46.266;20.062;2023-08-12T00:40:12;19.10;65.80
1760;DHT22;877;46.266;20.062;2023-08-12T00:42:38;18.70;65.20
1760;DHT22;877;46.266;20.062;2023-08-12T00:45:08;18.90;66.60
1760;DHT22;877;46.266;20.062;2023-08-12T00:47:34;18.70;65.90
1760;DHT22;877;46.266;20.062;2023-08-12T00:50:00;18.40;66.40
1760;DHT22;877;46.266;20.062;2023-08-12T00:52:26;18.40;66.60
1760;DHT22;877;46.266;20.062;2023-08-12T00:54:52;18.20;66.90
1760;DHT22;877;46.266;20.062;2023-08-12T00:57:18;18.20;66.70
1760;DHT22;877;46.266;20.062;2023-08-12T00:59:44;18.10;67.50
1760;DHT22;877;46.266;20.062;2023-08-12T01:02:12;18.40;68.20
1760;DHT22;877;46.266;20.062;2023-08-12T01:04:38;18.40;66.60
1760;DHT22;877;46.266;20.062;2023-08-12T01:07:04;18.30;66.80
1760;DHT22;877;46.266;20.062;2023-08-12T01:09:30;18.30;66.70
1760;DHT22;877;46.266;20.062;2023-08-12T01:12:10;18.00;67.00
1760;DHT22;877;46.266;20.062;2023-08-12T01:14:46;17.60;68.70
1760;DHT22;877;46.266;20.062;2023-08-12T01:17:15;17.70;68.90
1760;DHT22;877;46.266;20.062;2023-08-12T01:19:42;17.80;68.40
1760;DHT22;877;46.266;20.062;2023-08-12T01:22:10;17.90;68.40
1760;DHT22;877;46.266;20.062;2023-08-12T01:24:39;18.00;68.80
1760;DHT22;877;46.266;20.062;2023-08-12T01:27:06;18.20;68.70
1760;DHT22;877;46.266;20.062;2023-08-12T01:29:41;18.00;68.50
1760;DHT22;877;46.266;20.062;2023-08-12T01:32:45;17.80;68.50
1760;DHT22;877;46.266;20.062;2023-08-12T01:35:21;18.00;68.90
1760;DHT22;877;46.266;20.062;2023-08-12T01:37:50;17.90;68.20
1760;DHT22;877;46.266;20.062;2023-08-12T01:40:18;17.90;68.20
1760;DHT22;877;46.266;20.062;2023-08-12T01:42:45;17.80;68.40
1760;DHT22;877;46.266;20.062;2023-08-12T01:45:11;17.60;69.00
1760;DHT22;877;46.266;20.062;2023-08-12T01:47:37;17.00;71.30
1760;DHT22;877;46.266;20.062;2023-08-12T01:50:03;17.20;70.60
1760;DHT22;877;46.266;20.062;2023-08-12T01:52:29;17.60;71.60
1760;DHT22;877;46.266;20.062;2023-08-12T01:54:55;17.80;70.80
1760;DHT22;877;46.266;20.062;2023-08-12T01:57:21;17.70;70.20
1760;DHT22;877;46.266;20.062;2023-08-12T01:59:47;17.50;70.60
1760;DHT22;877;46.266;20.062;2023-08-12T02:02:13;17.70;70.90
1760;DHT22;877;46.266;20.062;2023-08-12T02:04:40;17.80;70.80
1760;DHT22;877;46.266;20.062;2023-08-12T02:07:07;17.60;69.90
1760;DHT22;877;46.266;20.062;2023-08-12T02:09:33;17.10;73.60
1760;DHT22;877;46.266;20.062;2023-08-12T02:11:59;17.50;72.60
1760;DHT22;877;46.266;20.062;2023-08-12T02:14:25;17.20;71.90
1760;DHT22;877;46.266;20.062;2023-08-12T02:16:51;17.40;72.10
1760;DHT22;877;46.266;20.062;2023-08-12T02:19:17;17.20;72.10
1760;DHT22;877;46.266;20.062;2023-08-12T02:21:43;17.20;71.70
1760;DHT22;877;46.266;20.062;2023-08-12T02:24:09;17.00;72.40
1760;DHT22;877;46.266;20.062;2023-08-12T02:26:35;17.00;72.30
1760;DHT22;877;46.266;20.062;2023-08-12T02:29:01;17.30;72.60
1760;DHT22;877;46.266;20.062;2023-08-12T02:31:27;17.30;71.70
1760;DHT22;877;46.266;20.062;2023-08-12T02:33:52;17.30;71.80
1760;DHT22;877;46.266;20.062;2023-08-12T02:36:18;16.70;73.30
1760;DHT22;877;46.266;20.062;2023-08-12T02:38:44;16.30;75.10
1760;DHT22;877;46.266;20.062;2023-08-12T02:41:10;16.20;75.80
1760;DHT22;877;46.266;20.062;2023-08-12T02:43:36;16.30;75.60
1760;DHT22;877;46.266;20.062;2023-08-12T02:46:02;16.00;76.40
1760;DHT22;877;46.266;20.062;2023-08-12T02:48:28;15.70;77.70
1760;DHT22;877;46.266;20.062;2023-08-12T02:50:53;15.70;78.30
1760;DHT22;877;46.266;20.062;2023-08-12T02:53:19;16.00;77.70
1760;DHT22;877;46.266;20.062;2023-08-12T02:55:45;16.10;76.70
1760;DHT22;877;46.266;20.062;2023-08-12T02:58:11;15.90;77.50
1760;DHT22;877;46.266;20.062;2023-08-12T03:00:41;16.10;77.00
1760;DHT22;877;46.266;20.062;2023-08-12T03:03:07;15.90;77.30
1760;DHT22;877;46.266;20.062;2023-08-12T03:05:33;15.50;79.10
1760;DHT22;877;46.266;20.062;2023-08-12T03:07:59;15.90;78.50
1760;DHT22;877;46.266;20.062;2023-08-12T03:10:27;16.10;77.40
1760;DHT22;877;46.266;20.062;2023-08-12T03:12:53;15.80;78.20
1760;DHT22;877;46.266;20.062;2023-08-12T03:15:19;15.90;77.60
1760;DHT22;877;46.266;20.062;2023-08-12T03:17:45;15.90;77.10
1760;DHT22;877;46.266;20.062;2023-08-12T03:20:11;16.00;77.40
1760;DHT22;877;46.266;20.062;2023-08-12T03:22:37;16.00;77.10
1760;DHT22;877;46.266;20.062;2023-08-12T03:25:04;16.20;77.60
1760;DHT22;877;46.266;20.062;2023-08-12T03:27:30;16.10;76.80
1760;DHT22;877;46.266;20.062;2023-08-12T03:29:56;16.00;76.90
1760;DHT22;877;46.266;20.062;2023-08-12T03:32:22;15.80;77.90
1760;DHT22;877;46.266;20.062;2023-08-12T03:34:48;15.90;77.90
1760;DHT22;877;46.266;20.062;2023-08-12T03:37:14;15.90;77.70
1760;DHT22;877;46.266;20.062;2023-08-12T03:39:39;15.80;77.90
1760;DHT22;877;46.266;20.062;2023-08-12T03:42:05;15.90;78.60
1760;DHT22;877;46.266;20.062;2023-08-12T03:44:31;15.70;78.70
1760;DHT22;877;46.266;20.062;2023-08-12T03:46:57;15.80;78.20
1760;DHT22;877;46.266;20.062;2023-08-12T03:49:25;15.90;78.40
1760;DHT22;877;46.266;20.062;2023-08-12T03:51:50;15.70;79.10
1760;DHT22;877;46.266;20.062;2023-08-12T03:54:16;15.60;79.40
1760;DHT22;877;46.266;20.062;2023-08-12T03:56:42;15.40;80.20
1760;DHT22;877;46.266;20.062;2023-08-12T03:59:08;15.20;80.90
1760;DHT22;877;46.266;20.062;2023-08-12T04:01:33;15.20;81.50
1760;DHT22;877;46.266;20.062;2023-08-12T04:03:59;15.50;80.80
1760;DHT22;877;46.266;20.062;2023-08-12T04:06:25;15.70;79.20
1760;DHT22;877;46.266;20.062;2023-08-12T04:08:51;15.80;78.90
1760;DHT22;877;46.266;20.062;2023-08-12T04:11:17;16.00;78.20
1760;DHT22;877;46.266;20.062;2023-08-12T04:13:42;15.90;78.60
1760;DHT22;877;46.266;20.062;2023-08-12T04:16:08;15.80;78.80
1760;DHT22;877;46.266;20.062;2023-08-12T04:18:35;15.90;78.10
1760;DHT22;877;46.266;20.062;2023-08-12T04:21:01;16.00;77.50
1760;DHT22;877;46.266;20.062;2023-08-12T04:23:26;15.90;78.20
1760;DHT22;877;46.266;20.062;2023-08-12T04:25:52;15.90;78.80
1760;DHT22;877;46.266;20.062;2023-08-12T04:28:19;15.90;78.70
1760;DHT22;877;46.266;20.062;2023-08-12T04:30:47;15.90;78.70
1760;DHT22;877;46.266;20.062;2023-08-12T04:33:14;16.00;78.60
1760;DHT22;877;46.266;20.062;2023-08-12T04:35:41;16.30;78.00
1760;DHT22;877;46.266;20.062;2023-08-12T04:38:07;16.50;76.70
1760;DHT22;877;46.266;20.062;2023-08-12T04:40:33;16.50;76.70
1760;DHT22;877;46.266;20.062;2023-08-12T04:42:59;16.50;77.00
1760;DHT22;877;46.266;20.062;2023-08-12T04:45:25;16.30;77.60
1760;DHT22;877;46.266;20.062;2023-08-12T04:47:52;16.30;78.30
1760;DHT22;877;46.266;20.062;2023-08-12T04:50:19;16.30;78.90
1760;DHT22;877;46.266;20.062;2023-08-12T04:52:45;16.50;77.60
1760;DHT22;877;46.266;20.062;2023-08-12T04:55:12;16.60;77.70
1760;DHT22;877;46.266;20.062;2023-08-12T04:57:37;16.70;76.90
1760;DHT22;877;46.266;20.062;2023-08-12T05:00:04;16.80;76.60
1760;DHT22;877;46.266;20.062;2023-08-12T05:02:33;16.90;76.60
1760;DHT22;877;46.266;20.062;2023-08-12T05:04:59;16.90;77.00
1760;DHT22;877;46.266;20.062;2023-08-12T05:07:25;16.90;77.20
1760;DHT22;877;46.266;20.062;2023-08-12T05:09:51;17.00;77.30
1760;DHT22;877;46.266;20.062;2023-08-12T05:12:17;17.00;77.90
1760;DHT22;877;46.266;20.062;2023-08-12T05:14:42;17.00;78.10
1760;DHT22;877;46.266;20.062;2023-08-12T05:17:08;17.10;78.80
1760;DHT22;877;46.266;20.062;2023-08-12T05:19:34;17.20;79.40
1760;DHT22;877;46.266;20.062;2023-08-12T05:22:00;17.40;79.40
1760;DHT22;877;46.266;20.062;2023-08-12T05:24:26;17.50;79.00
1760;DHT22;877;46.266;20.062;2023-08-12T05:26:52;17.60;78.50
1760;DHT22;877;46.266;20.062;2023-08-12T05:29:18;17.70;78.20
1760;DHT22;877;46.266;20.062;2023-08-12T05:31:43;17.90;78.40
1760;DHT22;877;46.266;20.062;2023-08-12T05:34:09;17.90;78.50
1760;DHT22;877;46.266;20.062;2023-08-12T05:36:36;17.80;79.20
1760;DHT22;877;46.266;20.062;2023-08-12T05:39:02;17.80;79.70
1760;DHT22;877;46.266;20.062;2023-08-12T05:41:29;18.00;79.10
1760;DHT22;877;46.266;20.062;2023-08-12T05:43:55;18.10;78.20
1760;DHT22;877;46.266;20.062;2023-08-12T05:46:21;18.00;79.50
1760;DHT22;877;46.266;20.062;2023-08-12T05:48:47;18.00;79.20
1760;DHT22;877;46.266;20.062;2023-08-12T05:51:13;18.30;78.70
1760;DHT22;877;46.266;20.062;2023-08-12T05:53:39;18.60;78.70
1760;DHT22;877;46.266;20.062;2023-08-12T05:56:05;18.80;77.50
1760;DHT22;877;46.266;20.062;2023-08-12T05:58:30;19.10;76.30
1760;DHT22;877;46.266;20.062;2023-08-12T06:00:57;19.20;76.30
1760;DHT22;877;46.266;20.062;2023-08-12T06:03:23;19.30;75.70
1760;DHT22;877;46.266;20.062;2023-08-12T06:05:48;19.50;75.60
1760;DHT22;877;46.266;20.062;2023-08-12T06:08:15;19.70;74.60
1760;DHT22;877;46.266;20.062;2023-08-12T06:10:41;19.80;73.20
1760;DHT22;877;46.266;20.062;2023-08-12T06:13:06;20.00;73.20
1760;DHT22;877;46.266;20.062;2023-08-12T06:15:32;20.10;71.40
1760;DHT22;877;46.266;20.062;2023-08-12T06:18:02;20.10;69.40
1760;DHT22;877;46.266;20.062;2023-08-12T06:20:28;20.10;68.00
1760;DHT22;877;46.266;20.062;2023-08-12T06:22:54;20.30;69.00
1760;DHT22;877;46.266;20.062;2023-08-12T06:25:20;20.60;69.00
1760;DHT22;877;46.266;20.062;2023-08-12T06:27:46;20.70;66.10
1760;DHT22;877;46.266;20.062;2023-08-12T06:30:13;20.80;65.40
1760;DHT22;877;46.266;20.062;2023-08-12T06:32:39;21.00;65.40
1760;DHT22;877;46.266;20.062;2023-08-12T06:35:06;21.20;63.80
1760;DHT22;877;46.266;20.062;2023-08-12T06:37:32;21.20;62.50
1760;DHT22;877;46.266;20.062;2023-08-12T06:39:58;21.40;64.40
1760;DHT22;877;46.266;20.062;2023-08-12T06:42:23;21.60;64.00
1760;DHT22;877;46.266;20.062;2023-08-12T06:44:59;21.60;62.40
1760;DHT22;877;46.266;20.062;2023-08-12T06:47:25;21.80;61.40
1760;DHT22;877;46.266;20.062;2023-08-12T06:49:53;22.00;60.70
1760;DHT22;877;46.266;20.062;2023-08-12T06:52:18;22.30;61.10
1760;DHT22;877;46.266;20.062;2023-08-12T06:54:44;22.50;59.90
1760;DHT22;877;46.266;20.062;2023-08-12T06:57:10;22.70;59.30
1760;DHT22;877;46.266;20.062;2023-08-12T06:59:38;23.00;57.10
1760;DHT22;877;46.266;20.062;2023-08-12T07:02:03;22.80;57.90
1760;DHT22;877;46.266;20.062;2023-08-12T07:04:29;23.30;57.60
1760;DHT22;877;46.266;20.062;2023-08-12T07:06:55;24.00;55.10
1760;DHT22;877;46.266;20.062;2023-08-12T07:09:23;24.30;55.00
1760;DHT22;877;46.266;20.062;2023-08-12T07:11:49;24.90;52.90
1760;DHT22;877;46.266;20.062;2023-08-12T07:14:18;25.00;53.30
1760;DHT22;877;46.266;20.062;2023-08-12T07:16:43;25.00;51.10
1760;DHT22;877;46.266;20.062;2023-08-12T07:19:09;25.40;49.70
1760;DHT22;877;46.266;20.062;2023-08-12T07:21:35;25.00;49.50
1760;DHT22;877;46.266;20.062;2023-08-12T07:24:01;25.40;51.10
1760;DHT22;877;46.266;20.062;2023-08-12T07:26:27;25.70;50.90
1760;DHT22;877;46.266;20.062;2023-08-12T07:28:52;25.40;47.70
1760;DHT22;877;46.266;20.062;2023-08-12T07:31:18;25.60;47.80
1760;DHT22;877;46.266;20.062;2023-08-12T07:33:44;26.10;48.30
1760;DHT22;877;46.266;20.062;2023-08-12T07:36:10;26.40;48.10
1760;DHT22;877;46.266;20.062;2023-08-12T07:38:36;26.60;46.20
1760;DHT22;877;46.266;20.062;2023-08-12T07:41:02;26.90;44.30
1760;DHT22;877;46.266;20.062;2023-08-12T07:43:27;26.50;44.60
1760;DHT22;877;46.266;20.062;2023-08-12T07:45:54;25.90;46.10
1760;DHT22;877;46.266;20.062;2023-08-12T07:48:22;26.80;45.50
1760;DHT22;877;46.266;20.062;2023-08-12T07:50:58;27.10;43.10
1760;DHT22;877;46.266;20.062;2023-08-12T07:53:25;27.00;43.70
1760;DHT22;877;46.266;20.062;2023-08-12T07:55:51;26.20;44.80
1760;DHT22;877;46.266;20.062;2023-08-12T07:58:18;26.70;45.40
1760;DHT22;877;46.266;20.062;2023-08-12T08:00:44;27.50;43.50
1760;DHT22;877;46.266;20.062;2023-08-12T08:03:10;27.30;43.10
1760;DHT22;877;46.266;20.062;2023-08-12T08:05:36;27.30;43.10
1760;DHT22;877;46.266;20.062;2023-08-12T08:08:05;27.90;43.30
1760;DHT22;877;46.266;20.062;2023-08-12T08:10:31;28.30;41.20
1760;DHT22;877;46.266;20.062;2023-08-12T08:12:56;28.20;41.70
1760;DHT22;877;46.266;20.062;2023-08-12T08:15:22;28.50;39.70
1760;DHT22;877;46.266;20.062;2023-08-12T08:17:48;28.50;40.20
1760;DHT22;877;46.266;20.062;2023-08-12T08:20:14;28.90;40.10
1760;DHT22;877;46.266;20.062;2023-08-12T08:22:40;29.20;37.50
1760;DHT22;877;46.266;20.062;2023-08-12T08:25:06;29.40;38.10
1760;DHT22;877;46.266;20.062;2023-08-12T08:27:32;29.40;38.50
1760;DHT22;877;46.266;20.062;2023-08-12T08:29:58;29.50;35.90
1760;DHT22;877;46.266;20.062;2023-08-12T08:32:24;29.50;36.90
1760;DHT22;877;46.266;20.062;2023-08-12T08:34:51;29.60;36.70
1760;DHT22;877;46.266;20.062;2023-08-12T08:37:17;29.60;35.90
1760;DHT22;877;46.266;20.062;2023-08-12T08:39:42;29.90;36.40
1760;DHT22;877;46.266;20.062;2023-08-12T08:42:10;30.10;35.80
1760;DHT22;877;46.266;20.062;2023-08-12T08:44:40;29.60;37.70
1760;DHT22;877;46.266;20.062;2023-08-12T08:47:08;30.00;37.10
1760;DHT22;877;46.266;20.062;2023-08-12T08:49:36;30.40;36.30
1760;DHT22;877;46.266;20.062;2023-08-12T08:52:02;30.50;37.20
1760;DHT22;877;46.266;20.062;2023-08-12T08:54:28;30.60;36.50
1760;DHT22;877;46.266;20.062;2023-08-12T08:56:54;30.40;37.90
1760;DHT22;877;46.266;20.062;2023-08-12T08:59:20;30.00;36.50
1760;DHT22;877;46.266;20.062;2023-08-12T09:01:49;30.00;38.40
1760;DHT22;877;46.266;20.062;2023-08-12T09:04:17;29.50;36.60
1760;DHT22;877;46.266;20.062;2023-08-12T09:06:44;29.30;38.50
1760;DHT22;877;46.266;20.062;2023-08-12T09:09:12;29.30;36.30
1760;DHT22;877;46.266;20.062;2023-08-12T09:11:39;28.30;38.50
1760;DHT22;877;46.266;20.062;2023-08-12T09:14:10;29.20;38.90
1760;DHT22;877;46.266;20.062;2023-08-12T09:16:36;29.90;39.00
1760;DHT22;877;46.266;20.062;2023-08-12T09:19:03;30.60;35.60
1760;DHT22;877;46.266;20.062;2023-08-12T09:21:29;30.10;34.90
1760;DHT22;877;46.266;20.062;2023-08-12T09:23:55;28.30;38.40
1760;DHT22;877;46.266;20.062;2023-08-12T09:26:21;29.10;39.40
1760;DHT22;877;46.266;20.062;2023-08-12T09:28:47;30.00;37.80
1760;DHT22;877;46.266;20.062;2023-08-12T09:31:30;29.00;39.30
1760;DHT22;877;46.266;20.062;2023-08-12T09:34:04;28.60;38.60
1760;DHT22;877;46.266;20.062;2023-08-12T09:36:30;30.00;38.10
1760;DHT22;877;46.266;20.062;2023-08-12T09:38:57;31.00;37.40
1760;DHT22;877;46.266;20.062;2023-08-12T09:41:26;29.60;36.40
1760;DHT22;877;46.266;20.062;2023-08-12T09:43:51;30.60;36.20
1760;DHT22;877;46.266;20.062;2023-08-12T09:46:21;31.00;35.40
1760;DHT22;877;46.266;20.062;2023-08-12T09:48:50;30.70;37.10
1760;DHT22;877;46.266;20.062;2023-08-12T09:51:17;31.40;35.60
1760;DHT22;877;46.266;20.062;2023-08-12T09:53:43;31.90;34.60
1760;DHT22;877;46.266;20.062;2023-08-12T09:56:11;30.30;35.10
1760;DHT22;877;46.266;20.062;2023-08-12T09:58:39;31.40;34.20
1760;DHT22;877;46.266;20.062;2023-08-12T10:01:06;31.60;34.50
1760;DHT22;877;46.266;20.062;2023-08-12T10:03:33;32.10;33.80
1760;DHT22;877;46.266;20.062;2023-08-12T10:06:01;32.10;32.20
1760;DHT22;877;46.266;20.062;2023-08-12T10:08:29;32.40;33.80
1760;DHT22;877;46.266;20.062;2023-08-12T10:10:55;32.20;33.60
1760;DHT22;877;46.266;20.062;2023-08-12T10:13:22;31.80;32.60
1760;DHT22;877;46.266;20.062;2023-08-12T10:15:50;29.60;34.30
1760;DHT22;877;46.266;20.062;2023-08-12T10:18:18;29.10;34.30
1760;DHT22;877;46.266;20.062;2023-08-12T10:20:44;30.10;34.20
1760;DHT22;877;46.266;20.062;2023-08-12T10:23:16;30.60;36.30
1760;DHT22;877;46.266;20.062;2023-08-12T10:25:43;32.20;33.70
1760;DHT22;877;46.266;20.062;2023-08-12T10:28:11;32.40;33.10
1760;DHT22;877;46.266;20.062;2023-08-12T10:30:37;32.60;33.60
1760;DHT22;877;46.266;20.062;2023-08-12T10:33:04;32.80;33.30
1760;DHT22;877;46.266;20.062;2023-08-12T10:38:16;33.30;31.40
1760;DHT22;877;46.266;20.062;2023-08-12T10:40:42;32.90;32.30
1760;DHT22;877;46.266;20.062;2023-08-12T10:43:08;32.50;34.10
1760;DHT22;877;46.266;20.062;2023-08-12T10:45:52;32.60;33.60
1760;DHT22;877;46.266;20.062;2023-08-12T10:48:23;33.20;34.30
1760;DHT22;877;46.266;20.062;2023-08-12T10:50:53;33.20;33.00
1760;DHT22;877;46.266;20.062;2023-08-12T10:53:28;33.40;32.90
1760;DHT22;877;46.266;20.062;2023-08-12T10:55:59;31.30;34.50
1760;DHT22;877;46.266;20.062;2023-08-12T10:58:39;32.60;33.10
1760;DHT22;877;46.266;20.062;2023-08-12T11:01:10;33.00;32.30
1760;DHT22;877;46.266;20.062;2023-08-12T11:03:36;33.60;32.80
1760;DHT22;877;46.266;20.062;2023-08-12T11:06:02;31.80;32.90
1760;DHT22;877;46.266;20.062;2023-08-12T11:08:28;28.60;36.20
1760;DHT22;877;46.266;20.062;2023-08-12T11:10:55;30.00;35.90
1760;DHT22;877;46.266;20.062;2023-08-12T11:13:27;31.40;36.20
1760;DHT22;877;46.266;20.062;2023-08-12T11:15:52;32.10;35.20
1760;DHT22;877;46.266;20.062;2023-08-12T11:18:31;32.00;31.70
1760;DHT22;877;46.266;20.062;2023-08-12T11:20:57;30.90;34.90
1760;DHT22;877;46.266;20.062;2023-08-12T11:23:23;30.60;33.50
1760;DHT22;877;46.266;20.062;2023-08-12T11:25:50;29.30;34.40
1760;DHT22;877;46.266;20.062;2023-08-12T11:28:18;30.90;32.10
1760;DHT22;877;46.266;20.062;2023-08-12T11:30:45;30.50;34.00
1760;DHT22;877;46.266;20.062;2023-08-12T11:33:10;30.80;34.30
1760;DHT22;877;46.266;20.062;2023-08-12T11:35:37;31.30;34.50
1760;DHT22;877;46.266;20.062;2023-08-12T11:38:05;31.90;33.70
1760;DHT22;877;46.266;20.062;2023-08-12T11:40:33;32.40;32.70
1760;DHT22;877;46.266;20.062;2023-08-12T11:43:01;32.80;34.10
1760;DHT22;877;46.266;20.062;2023-08-12T11:45:27;32.60;32.90
1760;DHT22;877;46.266;20.062;2023-08-12T11:47:54;32.50;33.00
1760;DHT22;877;46.266;20.062;2023-08-12T11:50:22;32.80;34.10
1760;DHT22;877;46.266;20.062;2023-08-12T11:52:49;33.10;31.80
1760;DHT22;877;46.266;20.062;2023-08-12T11:55:15;31.40;32.60
1760;DHT22;877;46.266;20.062;2023-08-12T11:57:43;29.40;35.30
1760;DHT22;877;46.266;20.062;2023-08-12T12:00:10;30.80;33.80
1760;DHT22;877;46.266;20.062;2023-08-12T12:05:13;32.80;32.60
1760;DHT22;877;46.266;20.062;2023-08-12T12:07:39;31.60;33.20
1760;DHT22;877;46.266;20.062;2023-08-12T12:10:05;31.70;33.30
1760;DHT22;877;46.266;20.062;2023-08-12T12:12:36;30.70;34.20
1760;DHT22;877;46.266;20.062;2023-08-12T12:15:03;31.30;35.20
1760;DHT22;877;46.266;20.062;2023-08-12T12:17:30;30.30;34.60
1760;DHT22;877;46.266;20.062;2023-08-12T12:19:58;30.20;36.10
1760;DHT22;877;46.266;20.062;2023-08-12T12:22:29;31.20;33.80
1760;DHT22;877;46.266;20.062;2023-08-12T12:24:57;32.50;34.50
1760;DHT22;877;46.266;20.062;2023-08-12T12:27:24;32.80;33.40
1760;DHT22;877;46.266;20.062;2023-08-12T12:29:50;33.60;31.50
1760;DHT22;877;46.266;20.062;2023-08-12T12:32:18;33.30;32.80
1760;DHT22;877;46.266;20.062;2023-08-12T12:34:45;33.30;32.30
1760;DHT22;877;46.266;20.062;2023-08-12T12:37:13;33.40;31.20
1760;DHT22;877;46.266;20.062;2023-08-12T12:39:40;33.40;32.00
1760;DHT22;877;46.266;20.062;2023-08-12T12:42:06;33.80;29.70
1760;DHT22;877;46.266;20.062;2023-08-12T12:44:32;33.20;30.10
1760;DHT22;877;46.266;20.062;2023-08-12T12:46:58;33.10;31.00
1760;DHT22;877;46.266;20.062;2023-08-12T12:49:24;33.60;32.30
1760;DHT22;877;46.266;20.062;2023-08-12T12:51:50;33.40;32.20
1760;DHT22;877;46.266;20.062;2023-08-12T12:54:16;32.60;31.40
1760;DHT22;877;46.266;20.062;2023-08-12T12:56:42;32.10;32.90
1760;DHT22;877;46.266;20.062;2023-08-12T12:59:07;32.30;34.30
1760;DHT22;877;46.266;20.062;2023-08-12T13:01:33;32.90;33.10
1760;DHT22;877;46.266;20.062;2023-08-12T13:03:59;32.30;33.20
1760;DHT22;877;46.266;20.062;2023-08-12T13:06:25;31.80;32.70
1760;DHT22;877;46.266;20.062;2023-08-12T13:08:51;32.50;32.40
1760;DHT22;877;46.266;20.062;2023-08-12T13:11:17;33.00;31.90
1760;DHT22;877;46.266;20.062;2023-08-12T13:13:43;33.30;31.80
1760;DHT22;877;46.266;20.062;2023-08-12T13:16:09;33.80;31.10
1760;DHT22;877;46.266;20.062;2023-08-12T13:18:35;34.00;31.90
1760;DHT22;877;46.266;20.062;2023-08-12T13:21:01;34.20;30.50
1760;DHT22;877;46.266;20.062;2023-08-12T13:23:27;32.00;32.90
1760;DHT22;877;46.266;20.062;2023-08-12T13:25:52;33.30;31.90
1760;DHT22;877;46.266;20.062;2023-08-12T13:28:18;34.10;30.70
1760;DHT22;877;46.266;20.062;2023-08-12T13:30:45;34.10;30.10
1760;DHT22;877;46.266;20.062;2023-08-12T13:33:11;34.30;30.70
1760;DHT22;877;46.266;20.062;2023-08-12T13:35:37;34.80;29.50
1760;DHT22;877;46.266;20.062;2023-08-12T13:38:03;34.30;28.90
1760;DHT22;877;46.266;20.062;2023-08-12T13:40:29;32.60;30.30
1760;DHT22;877;46.266;20.062;2023-08-12T13:42:56;33.10;30.70
1760;DHT22;877;46.266;20.062;2023-08-12T13:45:22;33.70;28.80
1760;DHT22;877;46.266;20.062;2023-08-12T13:47:50;33.40;31.10
1760;DHT22;877;46.266;20.062;2023-08-12T13:50:17;32.80;30.60
1760;DHT22;877;46.266;20.062;2023-08-12T13:52:43;33.00;30.40
1760;DHT22;877;46.266;20.062;2023-08-12T13:55:09;33.30;31.40
1760;DHT22;877;46.266;20.062;2023-08-12T13:57:35;33.90;29.70
1760;DHT22;877;46.266;20.062;2023-08-12T14:00:01;33.70;29.10
1760;DHT22;877;46.266;20.062;2023-08-12T14:02:28;34.60;29.70
1760;DHT22;877;46.266;20.062;2023-08-12T14:04:54;32.70;29.20
1760;DHT22;877;46.266;20.062;2023-08-12T14:07:20;33.60;31.20
1760;DHT22;877;46.266;20.062;2023-08-12T14:09:46;33.90;30.50
1760;DHT22;877;46.266;20.062;2023-08-12T14:12:12;32.10;30.50
1760;DHT22;877;46.266;20.062;2023-08-12T14:14:38;32.90;30.40
1760;DHT22;877;46.266;20.062;2023-08-12T14:17:05;34.10;29.10
1760;DHT22;877;46.266;20.062;2023-08-12T14:19:31;34.70;28.40
1760;DHT22;877;46.266;20.062;2023-08-12T14:21:57;35.00;28.80
1760;DHT22;877;46.266;20.062;2023-08-12T14:24:23;34.30;27.90
1760;DHT22;877;46.266;20.062;2023-08-12T14:26:49;34.30;30.00
1760;DHT22;877;46.266;20.062;2023-08-12T14:29:15;35.00;28.50
1760;DHT22;877;46.266;20.062;2023-08-12T14:31:41;34.90;29.10
1760;DHT22;877;46.266;20.062;2023-08-12T14:34:07;34.80;26.50
1760;DHT22;877;46.266;20.062;2023-08-12T14:36:32;35.10;29.10
1760;DHT22;877;46.266;20.062;2023-08-12T14:38:58;35.40;28.20
1760;DHT22;877;46.266;20.062;2023-08-12T14:41:24;35.60;29.20
1760;DHT22;877;46.266;20.062;2023-08-12T14:43:50;34.90;26.70
1760;DHT22;877;46.266;20.062;2023-08-12T14:46:16;33.60;27.90
1760;DHT22;877;46.266;20.062;2023-08-12T14:48:42;34.40;30.00
1760;DHT22;877;46.266;20.062;2023-08-12T14:51:08;35.20;27.80
1760;DHT22;877;46.266;20.062;2023-08-12T14:53:34;34.10;28.10
1760;DHT22;877;46.266;20.062;2023-08-12T14:55:59;34.50;29.40
1760;DHT22;877;46.266;20.062;2023-08-12T14:58:26;34.80;29.60
1760;DHT22;877;46.266;20.062;2023-08-12T15:00:52;35.20;27.80
1760;DHT22;877;46.266;20.062;2023-08-12T15:03:18;34.90;28.20
1760;DHT22;877;46.266;20.062;2023-08-12T15:05:44;35.30;28.40
1760;DHT22;877;46.266;20.062;2023-08-12T15:08:10;35.50;27.20
1760;DHT22;877;46.266;20.062;2023-08-12T15:10:35;35.80;27.70
1760;DHT22;877;46.266;20.062;2023-08-12T15:13:01;35.90;26.80
1760;DHT22;877;46.266;20.062;2023-08-12T15:15:27;35.40;26.30
1760;DHT22;877;46.266;20.062;2023-08-12T15:17:53;35.70;28.30
1760;DHT22;877;46.266;20.062;2023-08-12T15:20:19;35.70;27.40
1760;DHT22;877;46.266;20.062;2023-08-12T15:22:44;36.10;28.20
1760;DHT22;877;46.266;20.062;2023-08-12T15:25:10;36.20;25.90
1760;DHT22;877;46.266;20.062;2023-08-12T15:27:36;36.40;27.10
1760;DHT22;877;46.266;20.062;2023-08-12T15:30:02;36.90;26.90
1760;DHT22;877;46.266;20.062;2023-08-12T15:32:28;37.20;26.60
1760;DHT22;877;46.266;20.062;2023-08-12T15:34:56;37.50;26.20
1760;DHT22;877;46.266;20.062;2023-08-12T15:37:22;37.20;26.40
1760;DHT22;877;46.266;20.062;2023-08-12T15:39:48;37.00;26.70
1760;DHT22;877;46.266;20.062;2023-08-12T15:42:14;36.90;25.90
1760;DHT22;877;46.266;20.062;2023-08-12T15:44:40;35.50;26.40
1760;DHT22;877;46.266;20.062;2023-08-12T15:47:06;34.80;26.50
1760;DHT22;877;46.266;20.062;2023-08-12T15:49:32;34.80;26.60
1760;DHT22;877;46.266;20.062;2023-08-12T15:51:58;34.90;27.50
1760;DHT22;877;46.266;20.062;2023-08-12T15:54:24;34.70;27.80
1760;DHT22;877;46.266;20.062;2023-08-12T15:56:51;35.20;27.70
1760;DHT22;877;46.266;20.062;2023-08-12T15:59:17;35.00;27.40
1760;DHT22;877;46.266;20.062;2023-08-12T16:01:42;33.80;28.00
1760;DHT22;877;46.266;20.062;2023-08-12T16:04:08;34.60;29.50